Ana Sayfa
METAR-TAF:

METAR-TAF

Havaalanları :

Havana, Küba

Enlem: 22-59N, Boylam: 082-24W, yükseklik: 59 m

Güncel hava durumu gözlemi

Rapor saat 02:55 UTC de 36 dakika önce yapıldı.
Rüzgar değişken yönden 2 kt
Sıcaklık 22°C
Nem 94%
Basınç 1019 hPa
Görüş mesafesi: 9000 m

METAR: MUHA 240255Z VRB02KT 9000 NSC 22/21 Q1019

Saat: 22:31 (03:31 UTC)

Tahmin

Rapor saat 23:00 UTC de 4 saat ve 31 dakika önce yapıldı.
Ayın 24'si saat 00 UTC'den ayın 24'si saat 24 UTC'ye kadar geçerli Tahmin
Rüzgar güney/güneydoğudan 5 kt
Görüş mesafesi: 9000 m
3000 ft yükseklikte az bulutlu
Dönüşüyor
ayın 24'si saat 02 UTC'den ayın 24'si saat 04 UTC'ye kadar
Rüzgar değişken yönden 3 kt
Dönüşüyor
ayın 24'si saat 15 UTC'den ayın 24'si saat 17 UTC'ye kadar
Rüzgar doğu/güneydoğudan 5 kt
Dönüşüyor
ayın 24'si saat 21 UTC'den ayın 24'si saat 23 UTC'ye kadar
Rüzgar değişken yönden 3 kt

TAF: MUHA 232300Z 2400/2424 15005KT 9000 FEW030 BECMG 2402/2404 VRB03KT BECMG 2415/2417 11005KT BECMG 2421/2423 VRB03KT

4.000'den fazla havaalanı için hava durumu gözlemleri ve tahminleri (METAR ve TAF raporları).

Kullanılabilir istasyonlar harita üzerinde sarı ve kırmızı noktalarla gösterilir.

İstasyonun adını görmek için fareyi noktanın üzerinde gezdirin.

Sonrasında hava gözlem ve tahminlerini görmek için tıklayın.

Haritayı değiştirmek için: yaklaştırmak için siyah artı işaretli yeşil düğmeye ve uzaklaştırmak için de eksi işaretli düğmeye hızla tıklayın; bitişik haritalar için yeşil okları kullanın.


METAR-TAF: